עמוד ראשי
METAR-TAF:

METAR-TAF

שדות תעופה :

פנמה סיטי, פנמה

קו רוחב: 08-59N, קו אורך: 079-31W, גובה: 13מטר

תצפית מזג אוויר נוכחית

הדו"ח נערך לפני 2 שעות ו 6דקות, בשעה 16:00 UTC
רוח 11קשר מכיוון צפון/צפון-מערב
טמפרטורת 34 צלסיוס
לחות 56%
לחץ 1012 hPa
ראות: 9000מטר
עננים פזורים בגובה 1800רגל

METAR: MPMG 121600Z 33011KT 9000 SCT018 34/24 Q1012 NOSIG

זמן: 13:06 (18:06 UTC)

תחזית

תחזית בתוקף מ 12 ב 11 UTC עד 13 ב 00 UTC
רוח 5קשר מכיוון צפון/צפון-מערב
ראות 10 קילומטר או יותר
מעט עננים בגובה 1800רגל
זמנית מ -
12 ב 12 UTC עד 12 ב 14 UTC
רוח 2קשר עם כיוונים משתנים
זמנית מ -
12 ב 15 UTC עד 12 ב 17 UTC
רוח 6קשר מכיוון דרום/דרום-מזרח
זמנית מ -
12 ב 18 UTC עד 12 ב 22 UTC
רוח 15קשר מכיוון צפון
עננים פזורים בגובה 1800רגל , קומולוס מיגדלי.
עננים פזורים בגובה 9000רגל

TAF: MPMG 121100 1212/1224 33005KT 9999 FEW018 TEMPO 1212/1214 VRB02KT TEMPO 1215/1217 15006KT TEMPO 1218/1222 36015KT SCT018TCU SCT090

תצפיות ותחזיות מזג אוויר לגבי יותר מ- 4,000 שדות תעופה ברחבי העולם. דוחות METAR ו- TAF.

התחנות הזמינות מסומנות בנקודות צהובות ואדומות על גבי המפה.

העבר את העכבר לנקודה הצבעונית על מנת לראות את שם התחנה.

לאחר מכן, לחץ כדי לראות את תוכן ואת תחזיות מזג האוויר.

כדי לשנות את המפה: לחץ על הכפתורים הירוקים עם הפלוס השחור כדי להתקרב; על הכפתור הירוק עם המקף כדי להתרחק; או בחיצים הירוקים למפות סמוכות.


METAR-TAF: